Time;durP1;ratioP1;P1;durP2;ratioP2;P2;SDS_P1;SDS_P2;PMS_P1;PMS_P2;Temp;Humidity;BMP_temperature;BMP_pressure;BME280_temperature;BME280_humidity;BME280_pressure;Samples;Min_cycle;Max_cycle;Signal;HPM_P1;HPM_P2
2021/12/04 00:01:54;;;;;;;;;0.67;0.67;;;;;11.36;83.62;99557.47;5055326;28;45528;-80
2021/12/04 00:04:23;;;;;;;;;0.00;0.00;;;;;11.39;84.09;99549.47;5054281;28;45207;-81
2021/12/04 00:06:49;;;;;;;;;0.00;0.00;;;;;11.40;83.09;99535.41;5037408;28;46689;-80
2021/12/04 00:09:17;;;;;;;;;0.00;0.00;;;;;11.43;83.47;99532.69;5054024;28;45610;-80
2021/12/04 00:11:51;;;;;;;;;0.00;0.00;;;;;11.45;83.25;99524.75;5020934;28;45346;-80
2021/12/04 00:14:17;;;;;;;;;0.00;0.00;;;;;11.47;83.39;99513.28;5055155;28;46366;-80
2021/12/04 00:16:42;;;;;;;;;0.00;0.00;;;;;11.50;83.72;99515.88;5035648;28;46936;-80
2021/12/04 00:19:11;;;;;;;;;0.00;0.00;;;;;11.46;84.44;99503.59;5034270;28;66067;-81
2021/12/04 00:21:38;;;;;;;;;0.33;0.00;;;;;11.55;84.06;99510.50;5017672;28;45443;-81
2021/12/04 00:24:06;;;;;;;;;2.00;0.00;;;;;11.57;83.73;99511.38;5035707;28;55874;-81
2021/12/04 00:26:32;;;;;;;;;0.00;0.00;;;;;11.61;84.62;99509.53;5020157;28;60767;-79
2021/12/04 00:28:57;;;;;;;;;0.33;0.00;;;;;11.62;84.18;99509.53;5038261;28;57468;-80
2021/12/04 00:31:22;;;;;;;;;0.00;0.00;;;;;11.66;84.09;99489.19;5020312;28;45482;-81
2021/12/04 00:33:49;;;;;;;;;0.00;0.00;;;;;11.65;84.23;99492.75;5039433;28;45442;-79
2021/12/04 00:49:54;;;;;;;;;0.00;0.00;;;;;11.87;84.20;99477.44;5039012;28;45279;-80
2021/12/04 00:52:20;;;;;;;;;0.00;0.00;;;;;11.89;84.39;99473.03;5020828;28;45458;-81
2021/12/04 00:54:46;;;;;;;;;0.00;0.00;;;;;11.88;84.23;99474.81;5032113;28;52656;-79
2021/12/04 00:57:11;;;;;;;;;0.00;0.00;;;;;11.88;84.37;99469.53;5036329;28;46724;-80
2021/12/04 00:59:37;;;;;;;;;0.00;0.00;;;;;11.99;84.75;99472.84;5038403;28;45250;-80
2021/12/04 01:02:03;;;;;;;;;0.00;0.00;;;;;12.03;83.95;99471.00;5037845;28;62705;-80
2021/12/04 01:04:29;;;;;;;;;0.00;0.00;;;;;12.06;84.32;99477.13;5037918;28;45281;-80
2021/12/04 01:06:54;;;;;;;;;0.00;0.00;;;;;12.10;84.33;99467.38;4987024;28;62252;-81
2021/12/04 01:09:21;;;;;;;;;0.00;0.00;;;;;12.12;83.96;99460.28;5037744;28;45535;-80
2021/12/04 01:11:47;;;;;;;;;0.00;0.00;;;;;12.19;83.81;99476.91;5038429;28;45395;-80
2021/12/04 01:14:14;;;;;;;;;0.67;0.00;;;;;12.17;83.90;99463.72;5040007;28;45549;-81
2021/12/04 01:16:39;;;;;;;;;0.00;0.00;;;;;12.23;83.68;99470.69;5055567;28;47522;-80
2021/12/04 01:19:05;;;;;;;;;0.00;0.00;;;;;12.27;84.03;99475.88;5048745;28;60208;-79
2021/12/04 01:21:30;;;;;;;;;0.00;0.00;;;;;12.27;84.29;99467.09;5047418;28;53214;-80
2021/12/04 01:23:56;;;;;;;;;0.00;0.00;;;;;12.27;84.09;99470.59;5033026;28;45383;-80
2021/12/04 01:26:22;;;;;;;;;0.00;0.00;;;;;12.28;83.82;99469.69;5049082;28;47421;-81
2021/12/04 01:28:47;;;;;;;;;0.00;0.00;;;;;12.33;83.88;99482.84;5051812;28;45578;-80
2021/12/04 01:31:13;;;;;;;;;0.00;0.00;;;;;12.33;83.78;99475.78;5046257;28;45547;-80
2021/12/04 01:33:38;;;;;;;;;0.00;0.00;;;;;12.38;83.98;99483.63;5036491;28;53533;-80
2021/12/04 01:36:04;;;;;;;;;0.00;0.00;;;;;12.38;84.06;99477.47;5047640;28;60842;-80
2021/12/04 01:38:29;;;;;;;;;0.00;0.00;;;;;12.39;84.21;99479.22;5044871;28;66432;-80
2021/12/04 01:40:54;;;;;;;;;0.00;0.00;;;;;12.37;84.18;99481.91;5053840;28;61261;-81
2021/12/04 01:43:20;;;;;;;;;0.00;0.00;;;;;12.35;84.52;99475.75;5032857;28;58901;-79
2021/12/04 01:45:45;;;;;;;;;1.00;0.00;;;;;12.42;84.10;99492.41;5047254;28;47623;-81
2021/12/04 01:48:10;;;;;;;;;0.00;0.00;;;;;12.41;84.19;99483.59;5038912;28;45425;-80
2021/12/04 01:50:36;;;;;;;;;0.00;0.00;;;;;12.41;83.87;99490.63;5022091;28;45462;-79
2021/12/04 01:53:02;;;;;;;;;0.00;0.00;;;;;12.43;84.16;99494.16;5038586;28;45502;-80
2021/12/04 01:55:28;;;;;;;;;0.00;0.00;;;;;12.41;84.36;99483.59;5042241;28;45611;-80
2021/12/04 01:57:54;;;;;;;;;0.00;0.00;;;;;12.43;84.17;99491.50;5038264;28;45653;-80
2021/12/04 02:00:20;;;;;;;;;0.00;0.00;;;;;12.38;84.29;99482.78;5038034;28;45524;-80
2021/12/04 02:02:45;;;;;;;;;0.00;0.00;;;;;12.42;84.43;99492.41;5053243;28;45508;-80
2021/12/04 02:05:11;;;;;;;;;0.00;0.00;;;;;12.43;84.39;99488.84;5040283;28;63955;-81
2021/12/04 02:07:36;;;;;;;;;0.00;0.00;;;;;12.45;84.55;99487.91;5034206;28;46267;-80
2021/12/04 02:10:04;;;;;;;;;0.00;0.00;;;;;12.47;84.25;99496.72;5047917;28;52326;-80
2021/12/04 02:12:29;;;;;;;;;0.00;0.00;;;;;12.48;84.12;99498.47;5040505;28;45439;-80
2021/12/04 02:14:54;;;;;;;;;0.00;0.00;;;;;12.49;84.07;99486.09;5048036;28;51052;-81
2021/12/04 02:17:20;;;;;;;;;0.00;0.00;;;;;12.52;84.28;99494.00;5047282;28;57322;-81
2021/12/04 02:19:47;;;;;;;;;0.00;0.00;;;;;12.54;84.18;99489.53;5051414;28;45502;-80
2021/12/04 02:22:12;;;;;;;;;0.00;0.00;;;;;12.56;84.16;99493.00;5039728;28;45535;-80
2021/12/04 02:24:37;;;;;;;;;1.00;0.00;;;;;12.59;84.25;99493.84;5046939;28;58726;-80
2021/12/04 02:27:03;;;;;;;;;0.00;0.00;;;;;12.61;84.05;99499.09;5055518;28;45506;-79
2021/12/04 02:29:28;;;;;;;;;0.00;0.00;;;;;12.62;84.25;99503.47;5051832;28;45425;-80
2021/12/04 02:31:55;;;;;;;;;1.00;0.00;;;;;12.63;83.93;99494.66;5044646;28;45438;-80
2021/12/04 02:34:22;;;;;;;;;0.00;0.00;;;;;12.62;83.86;99492.03;5054003;28;46913;-80
2021/12/04 02:36:48;;;;;;;;;0.00;0.00;;;;;12.67;83.89;99498.09;5046965;28;45162;-80
2021/12/04 02:39:24;;;;;;;;;0.00;0.00;;;;;12.68;83.77;99497.22;5056394;28;45454;-80
2021/12/04 02:41:50;;;;;;;;;0.00;0.00;;;;;12.73;83.46;99500.63;5056421;28;45551;-80
2021/12/04 02:44:16;;;;;;;;;0.00;0.00;;;;;12.74;83.26;99500.63;5050339;28;47668;-80
2021/12/04 02:46:41;;;;;;;;;0.00;0.00;;;;;12.74;83.33;99500.63;5046462;28;45385;-81
2021/12/04 02:49:09;;;;;;;;;0.00;0.00;;;;;12.78;82.91;99512.91;5039916;28;52051;-81
2021/12/04 02:51:34;;;;;;;;;0.00;0.00;;;;;12.80;83.21;99512.88;5046880;28;45355;-80
2021/12/04 02:54:00;;;;;;;;;0.00;0.00;;;;;12.80;82.75;99503.16;5039305;28;47238;-80
2021/12/04 02:56:26;;;;;;;;;0.00;0.00;;;;;12.83;82.88;99502.19;5057570;28;45367;-79
2021/12/04 02:58:55;;;;;;;;;0.00;0.00;;;;;12.84;82.84;99511.94;5054958;28;45516;-81
2021/12/04 03:01:20;;;;;;;;;0.00;0.00;;;;;12.83;82.75;99504.84;5054953;28;45533;-81
2021/12/04 03:03:47;;;;;;;;;0.00;0.00;;;;;12.84;82.48;99504.84;5044661;28;47489;-80
2021/12/04 03:06:12;;;;;;;;;0.00;0.00;;;;;12.79;82.74;99497.91;5056562;28;45514;-79
2021/12/04 03:08:37;;;;;;;;;0.00;0.00;;;;;12.81;82.60;99514.63;5039249;28;51325;-79
2021/12/04 03:11:03;;;;;;;;;1.00;0.00;;;;;12.80;82.74;99512.88;5053475;28;45424;-80
2021/12/04 03:13:28;;;;;;;;;1.00;0.00;;;;;12.81;82.71;99507.53;5049719;28;63196;-81
2021/12/04 03:15:58;;;;;;;;;0.00;0.00;;;;;12.82;82.47;99497.81;5049377;28;52500;-80
2021/12/04 03:18:24;;;;;;;;;0.67;0.00;;;;;12.85;82.29;99503.94;5047902;28;45541;-81
2021/12/04 03:20:51;;;;;;;;;0.67;0.00;;;;;12.87;82.14;99509.19;5055366;28;45791;-80
2021/12/04 03:23:25;;;;;;;;;0.00;0.00;;;;;12.84;82.21;99496.91;5056857;28;47879;-79
2021/12/04 03:25:53;;;;;;;;;0.00;0.00;;;;;12.88;82.42;99510.06;5051994;28;45320;-79
2021/12/04 03:28:19;;;;;;;;;0.00;0.00;;;;;12.86;82.33;99499.50;5051471;28;45521;-81
2021/12/04 03:30:53;;;;;;;;;0.00;0.00;;;;;12.88;82.25;99508.28;5025813;28;45395;-81
2021/12/04 03:41:11;;;;;;;;;0.67;0.00;;;;;12.91;82.00;99505.59;5040669;28;45434;-80
2021/12/04 03:43:37;;;;;;;;;0.00;0.00;;;;;12.92;81.90;99495.88;5045162;28;59857;-80
2021/12/04 03:46:03;;;;;;;;;1.00;0.00;;;;;12.93;82.01;99509.06;5039706;28;64530;-79
2021/12/04 03:50:58;;;;;;;;;0.00;0.00;;;;;12.96;81.72;99505.50;5042166;28;45217;-80
2021/12/04 03:53:24;;;;;;;;;0.00;0.00;;;;;12.96;81.56;99498.44;5050126;28;47966;-80
2021/12/04 03:55:50;;;;;;;;;0.33;0.00;;;;;12.93;81.46;99490.53;5035881;28;45490;-80
2021/12/04 03:58:16;;;;;;;;;0.33;0.00;;;;;12.94;81.59;99491.41;5021711;28;45361;-81
2021/12/04 04:00:41;;;;;;;;;0.67;0.00;;;;;12.95;81.35;99491.38;5055783;28;45402;-80
2021/12/04 04:03:07;;;;;;;;;0.00;0.00;;;;;12.97;81.45;99502.81;5039309;28;64310;-79
2021/12/04 04:05:32;;;;;;;;;0.00;0.00;;;;;13.00;81.06;99501.91;5052592;28;58615;-80
2021/12/04 04:07:57;;;;;;;;;2.00;0.00;;;;;12.99;81.18;99492.19;5023390;28;52975;-80
2021/12/04 04:10:23;;;;;;;;;0.00;0.00;;;;;12.96;81.07;99482.53;5048473;28;50242;-81
2021/12/04 04:12:49;;;;;;;;;0.67;0.00;;;;;13.01;81.03;99491.25;5047779;28;65191;-80
2021/12/04 04:15:14;;;;;;;;;0.67;0.00;;;;;13.01;81.27;99488.59;5056847;28;45233;-80
2021/12/04 04:17:43;;;;;;;;;0.00;0.00;;;;;13.03;81.11;99504.47;5040816;28;45471;-82
2021/12/04 04:20:11;;;;;;;;;0.67;0.00;;;;;13.03;80.91;99488.56;5047628;28;45611;-80
2021/12/04 04:22:36;;;;;;;;;1.00;0.00;;;;;13.02;80.73;99490.34;5018630;28;46523;-80
2021/12/04 04:25:02;;;;;;;;;1.00;0.00;;;;;13.03;80.75;99489.44;5045435;28;65459;-80
2021/12/04 04:27:27;;;;;;;;;1.00;0.00;;;;;13.04;80.44;99485.88;5035040;28;45489;-81
2021/12/04 04:29:53;;;;;;;;;1.00;0.00;;;;;13.03;80.52;99480.63;5053486;28;45648;-80
2021/12/04 04:32:18;;;;;;;;;0.00;0.00;;;;;13.03;80.38;99492.09;5050644;28;53402;-81
2021/12/04 04:34:50;;;;;;;;;0.00;0.00;;;;;13.02;80.22;99487.69;5053289;28;45545;-81
2021/12/04 05:15:15;;;;;;;;;1.00;0.00;;;;;13.00;79.93;99472.75;5054380;28;45696;-81
2021/12/04 05:20:26;;;;;;;;;0.00;0.00;;;;;12.94;79.97;99460.47;5045911;28;45296;-81
2021/12/04 05:22:51;;;;;;;;;0.00;0.00;;;;;13.00;79.89;99468.31;5044775;28;45493;-80
2021/12/04 05:25:17;;;;;;;;;0.00;0.00;;;;;13.01;79.62;99474.50;5032517;28;47225;-81
2021/12/04 05:27:42;;;;;;;;;0.00;0.00;;;;;13.03;79.70;99481.50;5039492;28;45328;-81
2021/12/04 05:30:08;;;;;;;;;0.00;0.00;;;;;13.03;79.34;99468.25;5056581;28;45474;-80
2021/12/04 05:32:33;;;;;;;;;0.00;0.00;;;;;13.05;79.75;99473.53;5050836;28;45371;-81
2021/12/04 05:34:59;;;;;;;;;0.00;0.00;;;;;13.07;79.49;99469.94;5058073;28;56116;-81
2021/12/04 05:37:24;;;;;;;;;1.00;0.00;;;;;13.06;79.39;99473.50;5052810;28;64533;-81
2021/12/04 05:39:49;;;;;;;;;0.00;0.00;;;;;13.07;79.31;99469.06;5041289;28;52856;-80
2021/12/04 05:42:15;;;;;;;;;0.00;0.00;;;;;13.05;79.44;99469.09;5052162;28;60183;-79
2021/12/04 05:44:42;;;;;;;;;0.00;0.00;;;;;13.06;79.31;99470.84;5036109;28;61577;-80
2021/12/04 05:47:33;;;;;;;;;0.00;0.00;;;;;13.06;79.37;99469.97;5053586;28;45237;-81
2021/12/04 05:52:49;;;;;;;;;0.00;0.00;;;;;13.10;79.03;99483.13;5040864;28;45292;-80
2021/12/04 05:55:19;;;;;;;;;0.00;0.00;;;;;13.05;79.00;99474.41;5052838;28;47455;-80
2021/12/04 05:57:45;;;;;;;;;1.67;0.00;;;;;13.07;79.11;99472.56;5051526;28;45262;-80
2021/12/04 06:00:16;;;;;;;;;0.00;0.00;;;;;13.10;78.58;99484.88;5028248;28;45467;-81
2021/12/04 06:02:41;;;;;;;;;0.00;0.00;;;;;13.04;78.67;99474.41;5040908;28;45379;-81
2021/12/04 06:05:07;;;;;;;;;0.00;0.00;;;;;13.06;78.55;99478.78;5040228;28;45620;-81
2021/12/04 06:07:32;;;;;;;;;0.00;0.00;;;;;13.03;78.64;99473.53;5053388;28;45593;-81
2021/12/04 06:09:58;;;;;;;;;0.00;0.00;;;;;13.03;78.64;99476.19;5039878;28;45260;-82
2021/12/04 06:12:23;;;;;;;;;0.00;0.00;;;;;13.03;78.47;99473.53;5040436;28;53862;-81
2021/12/04 06:14:49;;;;;;;;;0.00;0.00;;;;;13.02;78.45;99474.44;5047249;28;67364;-82
2021/12/04 06:17:18;;;;;;;;;0.00;0.00;;;;;13.03;78.90;99467.38;5044977;28;45287;-81
2021/12/04 06:22:43;;;;;;;;;0.00;0.00;;;;;13.00;78.48;99463.03;5050114;28;45410;-81
2021/12/04 06:25:16;;;;;;;;;0.00;0.00;;;;;13.01;78.51;99463.88;5043435;28;47304;-81
2021/12/04 06:27:41;;;;;;;;;1.00;0.00;;;;;12.98;78.37;99456.00;5051033;28;45298;-81
2021/12/04 06:30:09;;;;;;;;;0.00;0.00;;;;;12.94;78.34;99456.94;5049686;28;45757;-81
2021/12/04 06:32:36;;;;;;;;;0.00;0.00;;;;;12.94;78.50;99452.53;5037215;28;45554;-82
2021/12/04 06:35:03;;;;;;;;;0.00;0.00;;;;;12.95;78.60;99449.00;5039760;28;47583;-80
2021/12/04 06:37:29;;;;;;;;;0.00;0.00;;;;;12.95;78.43;99451.66;5053376;28;45229;-81
2021/12/04 06:39:54;;;;;;;;;0.00;0.00;;;;;12.94;78.50;99431.31;5036711;28;45964;-81
2021/12/04 06:42:19;;;;;;;;;0.00;0.00;;;;;12.95;78.49;99440.19;5022794;28;63838;-82
2021/12/04 06:44:45;;;;;;;;;0.00;0.00;;;;;12.96;78.50;99444.56;5055972;28;46571;-81
2021/12/04 06:47:10;;;;;;;;;0.00;0.00;;;;;12.97;78.46;99449.81;5057047;28;45308;-81
2021/12/04 06:49:40;;;;;;;;;0.00;0.00;;;;;12.97;78.40;99441.00;5037668;28;45290;-81
2021/12/04 06:52:09;;;;;;;;;0.00;0.00;;;;;12.92;78.39;99441.09;5038608;28;45484;-81
2021/12/04 06:54:41;;;;;;;;;1.67;0.00;;;;;13.00;78.22;99447.13;5050265;28;46129;-81
2021/12/04 06:57:10;;;;;;;;;0.00;0.00;;;;;13.00;78.30;99439.19;5004645;28;45489;-81
2021/12/04 06:59:37;;;;;;;;;0.00;0.00;;;;;13.00;78.37;99427.72;5028552;28;45368;-81
2021/12/04 07:02:02;;;;;;;;;0.00;0.00;;;;;13.03;78.38;99428.50;5033579;28;45573;-81
2021/12/04 07:04:37;;;;;;;;;0.00;0.00;;;;;13.06;78.45;99435.53;5049062;28;47433;-81
2021/12/04 07:07:05;;;;;;;;;0.00;0.00;;;;;13.06;78.17;99446.13;5031839;28;45572;-81
2021/12/04 07:09:30;;;;;;;;;0.00;0.00;;;;;13.06;78.50;99439.03;5047022;28;45399;-81
2021/12/04 07:11:55;;;;;;;;;0.00;0.00;;;;;13.07;78.40;99448.72;5050948;28;59322;-81
2021/12/04 07:14:21;;;;;;;;;0.00;0.00;;;;;13.07;78.54;99437.25;5059001;28;49780;-82
2021/12/04 07:16:47;;;;;;;;;1.00;0.00;;;;;13.07;78.32;99438.13;5040887;28;45368;-81
2021/12/04 07:19:12;;;;;;;;;0.00;0.00;;;;;13.06;78.53;99436.38;5052577;28;45498;-81
2021/12/04 07:21:38;;;;;;;;;0.00;0.00;;;;;13.04;79.09;99421.41;5038263;28;45597;-80
2021/12/04 07:24:03;;;;;;;;;0.00;0.00;;;;;13.05;78.99;99442.59;5037436;28;48295;-80
2021/12/04 07:26:28;;;;;;;;;0.00;0.00;;;;;13.01;80.36;99424.16;5054392;28;45317;-81
2021/12/04 07:28:54;;;;;;;;;0.00;0.00;;;;;12.99;80.91;99420.63;5055571;28;45170;-80
2021/12/04 07:31:20;;;;;;;;;3.33;0.67;;;;;12.97;81.42;99431.28;5043983;28;45572;-81
2021/12/04 07:33:45;;;;;;;;;0.00;0.00;;;;;12.95;81.58;99429.59;5020773;28;47724;-81
2021/12/04 07:36:11;;;;;;;;;2.00;0.00;;;;;12.92;83.06;99438.44;5055525;28;45526;-80
2021/12/04 07:38:36;;;;;;;;;0.00;0.00;;;;;12.85;82.97;99408.56;5034160;28;45438;-80
2021/12/04 07:41:03;;;;;;;;;0.00;0.00;;;;;12.87;82.96;99408.53;5052569;28;48805;-80
2021/12/04 07:43:28;;;;;;;;;0.00;0.00;;;;;12.80;82.37;99418.38;5034678;28;48514;-80
2021/12/04 07:45:54;;;;;;;;;0.00;0.00;;;;;12.76;89.50;99422.00;5049544;28;45478;-80
2021/12/04 07:48:19;;;;;;;;;0.00;0.00;;;;;12.75;91.41;99432.63;5046062;28;58034;-80
2021/12/04 07:50:44;;;;;;;;;0.00;0.00;;;;;12.69;91.64;99435.41;5056305;28;45656;-80
2021/12/04 07:53:10;;;;;;;;;1.33;0.00;;;;;12.64;91.84;99421.38;5052017;28;63598;-79
2021/12/04 07:55:35;;;;;;;;;0.00;0.00;;;;;12.61;90.59;99426.72;5019103;28;63439;-80
2021/12/04 07:58:01;;;;;;;;;1.00;0.00;;;;;12.57;89.89;99424.16;5054158;28;45711;-80
2021/12/04 08:00:26;;;;;;;;;1.00;0.00;;;;;12.54;88.00;99421.56;5036231;28;45615;-80
2021/12/04 08:02:52;;;;;;;;;0.00;0.00;;;;;12.55;86.56;99425.06;5052866;28;45428;-80
2021/12/04 08:05:17;;;;;;;;;1.00;0.00;;;;;12.52;85.69;99433.97;5051512;28;45346;-80
2021/12/04 08:07:42;;;;;;;;;0.00;0.00;;;;;12.57;85.66;99433.88;5052603;28;45511;-80
2021/12/04 08:10:09;;;;;;;;;0.00;0.00;;;;;12.52;85.15;99435.75;5050743;28;56246;-80
2021/12/04 08:12:36;;;;;;;;;0.00;0.00;;;;;12.53;85.60;99453.38;5052008;28;47471;-80
2021/12/04 08:15:03;;;;;;;;;0.00;0.00;;;;;12.52;86.26;99448.97;5018355;28;45513;-84
2021/12/04 08:17:28;;;;;;;;;0.00;0.00;;;;;12.50;84.91;99450.78;4996744;28;45611;-83
2021/12/04 08:19:53;;;;;;;;;0.00;0.00;;;;;12.40;83.84;99447.41;5016970;28;45624;-84
2021/12/04 08:22:19;;;;;;;;;0.00;0.00;;;;;12.41;83.13;99456.22;4987050;28;64823;-84
2021/12/04 08:24:47;;;;;;;;;1.00;0.00;;;;;12.33;83.29;99451.09;5012330;28;53060;-83
2021/12/04 08:27:12;;;;;;;;;0.00;0.00;;;;;12.34;83.59;99466.06;5033638;28;45538;-81
2021/12/04 08:29:38;;;;;;;;;0.33;0.00;;;;;12.35;83.38;99462.50;5019512;28;45385;-79
2021/12/04 08:32:03;;;;;;;;;0.00;0.00;;;;;12.36;83.45;99477.50;5033845;28;45642;-80
2021/12/04 08:34:29;;;;;;;;;0.00;0.00;;;;;12.40;83.16;99473.03;5033657;28;45531;-82
2021/12/04 08:36:54;;;;;;;;;0.00;0.00;;;;;12.42;82.74;99471.22;5033485;28;45428;-78
2021/12/04 08:39:20;;;;;;;;;0.00;0.00;;;;;12.42;82.12;99466.81;5033200;28;45853;-78
2021/12/04 08:41:46;;;;;;;;;0.00;0.00;;;;;12.41;81.41;99472.09;5033190;28;47147;-80
2021/12/04 08:44:11;;;;;;;;;0.00;0.00;;;;;12.38;80.53;99475.69;5033791;28;45555;-79
2021/12/04 08:46:46;;;;;;;;;0.00;0.00;;;;;12.36;79.48;99479.25;5028008;28;58688;-78
2021/12/04 08:49:12;;;;;;;;;0.00;0.00;;;;;12.36;79.34;99492.50;5034575;28;45496;-77
2021/12/04 08:51:37;;;;;;;;;1.00;0.00;;;;;12.33;78.96;99482.84;5016042;28;45911;-76
2021/12/04 08:54:03;;;;;;;;;0.00;0.00;;;;;12.33;78.01;99499.59;5014787;28;45572;-82
2021/12/04 08:56:28;;;;;;;;;0.00;0.00;;;;;12.36;78.08;99501.34;5019615;28;45539;-76
2021/12/04 08:58:53;;;;;;;;;0.00;0.00;;;;;12.36;78.00;99503.09;5026666;28;45628;-77
2021/12/04 09:01:25;;;;;;;;;0.00;0.00;;;;;12.33;77.30;99501.38;5027434;28;46473;-79
2021/12/04 09:03:56;;;;;;;;;1.00;0.00;;;;;12.25;76.25;99532.38;5033367;28;45343;-81
2021/12/04 09:06:22;;;;;;;;;1.00;0.00;;;;;12.27;76.72;99522.66;5013383;28;46960;-81
2021/12/04 09:08:47;;;;;;;;;1.00;0.00;;;;;12.31;77.26;99521.72;4977415;28;45635;-81
2021/12/04 09:11:24;;;;;;;;;0.00;0.00;;;;;12.32;75.63;99529.63;5014707;28;46516;-81
2021/12/04 09:13:51;;;;;;;;;1.00;0.00;;;;;12.35;75.37;99536.63;4994641;28;45615;-76
2021/12/04 09:16:17;;;;;;;;;1.00;1.00;;;;;12.33;74.73;99534.00;5009127;28;45616;-75
2021/12/04 09:18:43;;;;;;;;;1.00;0.00;;;;;12.37;74.70;99539.25;5031588;28;45606;-75
2021/12/04 09:21:10;;;;;;;;;0.00;0.00;;;;;12.39;74.08;99538.31;5010698;28;65206;-79
2021/12/04 09:23:38;;;;;;;;;0.00;0.00;;;;;12.45;73.75;99545.28;5017440;28;45520;-77
2021/12/04 09:26:06;;;;;;;;;0.33;0.00;;;;;12.52;74.37;99555.75;5020621;28;45573;-77
2021/12/04 09:31:30;;;;;;;;;1.00;0.00;;;;;12.51;72.22;99561.06;5031217;28;45372;-76
2021/12/04 10:34:31;;;;;;;;;0.00;0.00;;;;;12.02;67.55;99649.16;5007496;28;45338;-80
2021/12/04 10:37:05;;;;;;;;;1.00;0.00;;;;;11.99;68.32;99655.38;5003984;28;46760;-83
2021/12/04 10:39:30;;;;;;;;;0.00;0.00;;;;;12.06;68.99;99656.16;4988972;28;45518;-81
2021/12/04 10:41:56;;;;;;;;;2.00;0.00;;;;;12.18;69.21;99648.06;5014698;28;45834;-83
2021/12/04 10:44:23;;;;;;;;;0.00;0.00;;;;;12.25;68.95;99654.13;4998549;28;45519;-82
2021/12/04 10:47:02;;;;;;;;;0.00;0.00;;;;;12.36;69.14;99657.50;5007639;28;46987;-78
2021/12/04 10:55:20;;;;;;;;;0.33;0.00;;;;;12.50;68.30;99663.44;5004820;28;45578;-81
2021/12/04 11:01:02;;;;;;;;;0.00;0.00;;;;;12.50;68.47;99674.03;4997528;28;45683;-82
2021/12/04 11:03:16;;;;;;;;;1.00;0.00;;;;;12.43;68.46;99656.50;5000449;28;45510;-81
2021/12/04 11:06:28;;;;;;;;;1.00;0.00;;;;;12.44;68.58;99663.53;5002908;28;45499;-81
2021/12/04 11:22:45;;;;;;;;;0.33;0.00;;;;;12.20;69.08;99679.81;5003629;28;45520;-81
2021/12/04 11:41:23;;;;;;;;;3.67;0.00;;;;;11.03;74.82;99733.09;5004485;28;45440;-79
2021/12/04 11:44:05;;;;;;;;;1.00;1.00;;;;;11.01;75.18;99741.00;5005575;28;45524;-79
2021/12/04 11:46:45;;;;;;;;;2.00;1.00;;;;;10.92;75.14;99741.09;4975182;28;45309;-79
2021/12/04 11:49:19;;;;;;;;;1.00;1.00;;;;;11.01;74.91;99748.06;4987959;28;45613;-78
2021/12/04 11:51:59;;;;;;;;;2.00;2.00;;;;;11.09;75.20;99737.44;5004868;28;47552;-78
2021/12/04 11:54:42;;;;;;;;;1.00;1.00;;;;;11.16;74.86;99750.56;5005016;28;45480;-79
2021/12/04 11:57:09;;;;;;;;;2.67;1.00;;;;;11.27;74.63;99755.75;5003217;28;45670;-79
2021/12/04 11:59:35;;;;;;;;;7.33;1.00;;;;;11.34;74.23;99756.56;5006125;28;45606;-78
2021/12/04 12:02:01;;;;;;;;;2.00;2.00;;;;;11.37;74.36;99749.50;5003400;28;46260;-81
2021/12/04 12:04:35;;;;;;;;;3.33;1.00;;;;;11.43;74.13;99759.13;4984798;28;45496;-79
2021/12/04 12:07:09;;;;;;;;;3.00;1.67;;;;;11.45;73.58;99760.88;4997302;28;45715;-79
2021/12/04 12:09:36;;;;;;;;;2.67;1.67;;;;;11.58;72.32;99769.56;5001085;28;45511;-80
2021/12/04 12:12:02;;;;;;;;;3.67;1.00;;;;;11.62;72.22;99773.94;4993684;28;47138;-79
2021/12/04 12:14:48;;;;;;;;;4.33;1.00;;;;;11.67;71.50;99774.75;5012448;28;45495;-80
2021/12/04 12:17:16;;;;;;;;;2.00;2.00;;;;;11.76;71.65;99779.06;5002155;28;45543;-79
2021/12/04 12:19:52;;;;;;;;;3.33;2.00;;;;;11.74;69.47;99800.25;5006221;28;45504;-79
2021/12/04 12:22:41;;;;;;;;;1.00;1.00;;;;;11.75;69.54;99801.13;5010660;28;48203;-79
2021/12/04 12:25:21;;;;;;;;;2.67;2.33;;;;;11.69;68.26;99793.25;5007902;28;45654;-79
2021/12/04 12:33:27;;;;;;;;;7.67;1.00;;;;;11.66;67.77;99817.06;5000027;28;45766;-81
2021/12/04 12:36:03;;;;;;;;;1.33;0.33;;;;;11.74;66.92;99818.75;5010104;28;45665;-82
2021/12/04 12:38:42;;;;;;;;;6.67;1.00;;;;;11.85;67.50;99825.75;4993417;28;45576;-84
2021/12/04 12:41:27;;;;;;;;;1.00;1.00;;;;;11.87;66.79;99848.63;4975411;28;45568;-82
2021/12/04 12:44:04;;;;;;;;;5.67;3.00;;;;;11.83;65.29;99846.06;5006988;28;46295;-82
2021/12/04 12:46:44;;;;;;;;;3.00;2.00;;;;;11.81;66.79;99859.22;5011246;28;46447;-81
2021/12/04 12:49:23;;;;;;;;;2.00;2.00;;;;;11.74;66.46;99849.63;4989327;28;45568;-83
2021/12/04 12:51:59;;;;;;;;;2.00;2.00;;;;;11.61;66.71;99842.66;4982767;28;45616;-83
2021/12/04 12:54:39;;;;;;;;;8.00;3.00;;;;;11.58;66.79;99861.22;5008010;28;47626;-82
2021/12/04 12:57:12;;;;;;;;;4.67;2.00;;;;;11.51;66.43;99858.63;4987490;28;45654;-83
2021/12/04 12:59:45;;;;;;;;;4.00;2.33;;;;;11.43;66.63;99867.50;4992009;28;45385;-82
2021/12/04 13:13:26;;;;;;;;;2.00;2.00;;;;;11.20;65.50;99873.84;4949131;28;45607;-79
2021/12/04 13:15:52;;;;;;;;;3.00;3.00;;;;;11.17;66.40;99876.50;4996432;28;47465;-79
2021/12/04 13:18:22;;;;;;;;;3.67;2.00;;;;;11.15;65.94;99874.78;4993907;28;45595;-79
2021/12/04 13:20:48;;;;;;;;;7.67;3.00;;;;;11.20;66.26;99883.53;5009763;28;45512;-81
2021/12/04 13:23:15;;;;;;;;;7.00;3.00;;;;;11.21;66.11;99872.06;4992285;28;47038;-82
2021/12/04 13:26:01;;;;;;;;;3.33;2.33;;;;;11.29;65.48;99864.94;4989084;28;46332;-82
2021/12/04 13:28:28;;;;;;;;;6.00;2.00;;;;;11.58;65.05;99891.19;5006908;28;45484;-81
2021/12/04 13:30:54;;;;;;;;;3.00;2.00;;;;;11.65;64.57;99881.41;5001816;28;45811;-82
2021/12/04 13:33:20;;;;;;;;;5.67;3.33;;;;;11.69;63.30;99896.38;5012515;28;45482;-82
2021/12/04 13:35:46;;;;;;;;;3.67;2.00;;;;;11.62;62.38;99886.75;5012816;28;46361;-83
2021/12/04 13:38:12;;;;;;;;;4.33;2.67;;;;;11.54;62.07;99894.72;5003884;28;46755;-80
2021/12/04 13:40:38;;;;;;;;;5.67;2.00;;;;;11.50;61.93;99893.00;4985762;28;45374;-85
2021/12/04 13:43:11;;;;;;;;;3.67;1.67;;;;;11.49;61.30;99900.06;4992014;28;45612;-83
2021/12/04 13:45:36;;;;;;;;;3.00;1.00;;;;;11.48;60.38;99893.00;5014346;28;46439;-81
2021/12/04 13:48:02;;;;;;;;;3.00;1.00;;;;;11.50;61.21;99887.69;5010234;28;56254;-81
2021/12/04 13:52:58;;;;;;;;;5.67;1.00;;;;;11.49;61.60;99881.53;4991199;28;45465;-81
2021/12/04 13:55:24;;;;;;;;;4.00;1.67;;;;;11.50;61.52;99891.25;5012660;28;46168;-81
2021/12/04 13:57:50;;;;;;;;;2.00;1.00;;;;;11.48;60.86;99879.78;5016514;28;45288;-82
2021/12/04 14:00:17;;;;;;;;;1.67;1.00;;;;;11.52;60.26;99873.59;5003385;28;45407;-82
2021/12/04 14:02:43;;;;;;;;;6.33;2.00;;;;;11.52;58.86;99880.66;5018471;28;45286;-82
2021/12/04 14:05:14;;;;;;;;;23.50;17.25;;;;;11.48;59.20;99869.22;5017090;28;46753;-85
2021/12/04 14:07:52;;;;;;;;;25.25;19.50;;;;;11.51;59.55;99871.84;5002361;28;45652;-81
2021/12/04 14:10:22;;;;;;;;;17.25;14.00;;;;;11.48;59.40;99857.78;5006064;28;45370;-81
2021/12/04 14:12:48;;;;;;;;;18.75;13.75;;;;;11.61;59.00;99879.69;4992646;28;45296;-81
2021/12/04 14:15:17;;;;;;;;;4.67;2.67;;;;;11.59;60.03;99873.53;4989501;28;45637;-82
2021/12/04 14:17:42;;;;;;;;;10.67;9.00;;;;;11.60;59.37;99888.50;5012039;28;45254;-81
2021/12/04 14:20:08;;;;;;;;;4.67;4.67;;;;;11.55;60.43;99883.25;5013410;28;45281;-81
2021/12/04 14:22:34;;;;;;;;;4.00;2.00;;;;;11.54;59.83;99900.88;5000110;28;45536;-81
2021/12/04 14:25:02;;;;;;;;;1.00;1.00;;;;;11.47;59.10;99893.91;5013112;28;47613;-82
2021/12/04 14:27:32;;;;;;;;;5.00;3.00;;;;;11.43;59.71;99900.09;5014015;28;45511;-81
2021/12/04 14:30:00;;;;;;;;;12.33;8.33;;;;;11.40;59.45;99900.13;5017613;28;45264;-81
2021/12/04 14:32:28;;;;;;;;;8.67;7.00;;;;;11.36;59.51;99902.81;4998889;28;45485;-84
2021/12/04 14:35:05;;;;;;;;;7.67;2.33;;;;;11.37;58.94;99912.50;4982641;28;48853;-82
2021/12/04 14:37:34;;;;;;;;;16.67;10.67;;;;;11.28;58.76;99911.66;5001472;28;45507;-84
2021/12/04 14:40:00;;;;;;;;;3.00;1.00;;;;;11.25;57.98;99918.75;4996369;28;45433;-82
2021/12/04 14:42:28;;;;;;;;;2.67;1.33;;;;;11.13;54.36;99918.78;4988088;28;45595;-82
2021/12/04 14:45:03;;;;;;;;;5.00;5.00;;;;;11.12;56.71;99928.50;4999653;28;45541;-81
2021/12/04 14:47:43;;;;;;;;;7.33;4.67;;;;;11.07;57.13;99924.13;4988272;28;45264;-81
2021/12/04 14:50:08;;;;;;;;;3.00;1.00;;;;;11.14;57.58;99933.78;4973363;28;45323;-82